Humidity-temperature Sensor

Selected Measurement Type: Relative Humidity

 
Relative Humidity [%]     6 entries per hour
Showing data from 3/19/2015 (00:00:00 Z) to 3/18/2015 (00:01:00 Z)
Previous Next [ Day | 3-Days | 7-Days ]
First Last
Prev [ Day | 3-Days | 7-Days ] Next
First Last

Start Time:     :
End Time:     :     
Time (in GMT) :00 :50 :40 :30 :20 :10
Previous Next [ Day | 3-Days | 7-Days ]
First Last
Prev [ Day | 3-Days | 7-Days ] Next
First Last


123 => good data
MM => data is determined as missing
-- => data not received/configured
Back to Top Back to Top
3/19/2015 00:00 to 23:10 79.73 77.75 80.06 79.27 80.79 81.39
3/18/2015 23:00 to 22:10 80.45 80.45 80.54 78.60 79.21 78.91
3/18/2015 22:00 to 21:10 79.60 79.39 80.45 80.49 80.06 78.87
3/18/2015 21:00 to 20:10 78.87 77.54 77.81 79.79 79.21 80.06
3/18/2015 20:00 to 19:10 81.62 80.56 78.12 79.75 80.18 79.85
3/18/2015 19:00 to 18:10 80.85 80.33 79.37 78.46 77.48 78.77
3/18/2015 18:00 to 17:10 79.58 78.33 78.10 78.04 76.82 76.75
3/18/2015 17:00 to 16:10 77.33 77.58 77.15 76.86 76.38 76.38
3/18/2015 16:00 to 15:10 76.54 77.58 76.71 76.09 77.40 78.77
3/18/2015 15:00 to 14:10 78.91 78.08 80.60 80.41 80.85 79.85
3/18/2015 14:00 to 13:10 81.22 80.97 80.70 80.79 82.05 81.64
3/18/2015 13:00 to 12:10 81.85 82.18 82.53 81.68 82.74 83.22
3/18/2015 12:00 to 11:10 81.66 79.62 78.94 79.85 81.49 82.41
3/18/2015 11:00 to 10:10 80.45 80.70 80.14 81.24 80.83 80.06
3/18/2015 10:00 to 9:10 79.48 78.46 79.54 80.35 79.48 79.21
3/18/2015 09:00 to 8:10 79.27 79.23 79.43 80.89 82.34 82.01
3/18/2015 08:00 to 7:10 81.28 81.14 80.20 80.37 80.89 80.66
3/18/2015 07:00 to 6:10 79.52 78.79 79.68 81.31 81.80 80.93
3/18/2015 06:00 to 5:10 80.56 80.54 78.31 76.88 75.73 78.77
3/18/2015 05:00 to 4:10 77.58 78.19 78.98 78.10 77.85 79.21
3/18/2015 04:00 to 3:10 79.46 78.96 77.96 76.13 76.25 76.13
3/18/2015 03:00 to 2:10 77.90 76.63 76.94 75.42 72.35 75.05
3/18/2015 02:00 to 1:10 74.86 74.84 74.38 74.97 75.61 74.92
3/18/2015 01:00 to 0:10 75.82 76.13 76.82 76.61 76.38 76.82